Time;durP1;ratioP1;P1;durP2;ratioP2;P2;SDS_P1;SDS_P2;PMS_P1;PMS_P2;Temp;Humidity;BMP_temperature;BMP_pressure;BME280_temperature;BME280_humidity;BME280_pressure;Samples;Min_cycle;Max_cycle;Signal;HPM_P1;HPM_P2
2023/11/20 00:00:50;;;;;;;20.30;9.03;;;;;;;8.57;100.00;99733.50;7362249;19;20480;-46
2023/11/20 00:03:22;;;;;;;23.30;8.13;;;;;;;8.63;100.00;99732.84;7384585;19;20756;-46
2023/11/20 00:05:52;;;;;;;24.50;9.90;;;;;;;8.64;100.00;99735.47;7360940;19;20990;-45
2023/11/20 00:08:24;;;;;;;23.07;8.30;;;;;;;8.67;100.00;99729.53;7384421;19;20439;-47
2023/11/20 00:10:54;;;;;;;25.77;9.57;;;;;;;8.68;100.00;99730.44;7364498;19;20434;-48
2023/11/20 00:13:24;;;;;;;20.80;9.30;;;;;;;8.68;100.00;99721.03;7384393;19;20412;-49
2023/11/20 00:15:54;;;;;;;18.43;8.87;;;;;;;8.67;100.00;99723.53;7363164;19;20789;-47
2023/11/20 00:18:23;;;;;;;18.40;8.77;;;;;;;8.68;100.00;99721.03;7384182;19;20451;-48
2023/11/20 00:20:53;;;;;;;24.47;9.40;;;;;;;8.69;100.00;99722.78;7363364;19;20419;-46
2023/11/20 00:23:25;;;;;;;20.37;9.60;;;;;;;8.67;100.00;99720.97;7385365;19;20424;-45
2023/11/20 00:25:55;;;;;;;18.93;8.23;;;;;;;8.65;100.00;99720.91;7362212;19;20423;-46
2023/11/20 00:28:24;;;;;;;24.63;8.77;;;;;;;8.65;100.00;99718.34;7384157;19;20522;-46
2023/11/20 00:30:54;;;;;;;19.50;8.97;;;;;;;8.64;100.00;99712.34;7362872;19;20507;-48
2023/11/20 00:33:23;;;;;;;21.50;9.03;;;;;;;8.66;100.00;99714.94;7383001;19;20447;-53
2023/11/20 00:35:53;;;;;;;23.70;8.50;;;;;;;8.63;100.00;99708.00;7359346;19;20424;-45
2023/11/20 00:38:25;;;;;;;22.03;9.77;;;;;;;8.63;100.00;99705.41;7383878;19;20431;-46
2023/11/20 00:40:55;;;;;;;24.97;9.57;;;;;;;8.66;100.00;99712.38;7361615;19;20514;-47
2023/11/20 00:43:25;;;;;;;23.00;8.40;;;;;;;8.64;100.00;99708.88;7388591;19;20448;-49
2023/11/20 00:45:54;;;;;;;17.30;8.87;;;;;;;8.68;100.00;99704.72;7369188;19;20418;-49
2023/11/20 00:48:24;;;;;;;21.20;9.00;;;;;;;8.66;100.00;99712.38;7389450;19;20435;-46
2023/11/20 00:50:54;;;;;;;20.50;8.73;;;;;;;8.64;100.00;99709.78;7369638;19;20427;-46
2023/11/20 00:53:26;;;;;;;26.40;9.30;;;;;;;8.65;100.00;99705.47;7391826;19;20399;-47
2023/11/20 00:55:56;;;;;;;20.03;7.63;;;;;;;8.63;100.00;99708.00;7370776;19;21053;-48
2023/11/20 00:58:25;;;;;;;26.63;8.60;;;;;;;8.65;100.00;99705.47;7389060;19;20441;-46
2023/11/20 01:00:55;;;;;;;19.70;8.20;;;;;;;8.63;100.00;99707.13;7365889;19;20423;-51
2023/11/20 01:03:25;;;;;;;18.40;8.03;;;;;;;8.69;100.00;99709.91;7391494;19;20414;-47
2023/11/20 01:05:55;;;;;;;18.37;7.13;;;;;;;8.66;100.00;99720.09;7364976;19;20510;-48
2023/11/20 01:08:27;;;;;;;15.90;7.50;;;;;;;8.61;100.00;99716.50;7388022;19;20526;-46
2023/11/20 01:10:57;;;;;;;21.77;7.43;;;;;;;8.64;100.00;99716.59;7367974;19;20419;-46
2023/11/20 01:13:26;;;;;;;21.17;8.10;;;;;;;8.63;100.00;99718.28;7391992;19;20453;-49
2023/11/20 01:15:56;;;;;;;15.50;7.93;;;;;;;8.63;100.00;99722.56;7369835;19;20419;-48
2023/11/20 01:18:26;;;;;;;21.47;7.10;;;;;;;8.66;100.00;99719.22;7387781;19;20450;-46
2023/11/20 01:20:55;;;;;;;17.60;7.10;;;;;;;8.68;100.00;99715.88;7369238;19;20567;-47
2023/11/20 01:23:27;;;;;;;25.50;8.40;;;;;;;8.68;100.00;99709.84;7388645;19;20407;-50
2023/11/20 01:25:57;;;;;;;18.67;8.40;;;;;;;8.67;100.00;99714.09;7366483;19;20808;-46
2023/11/20 01:28:27;;;;;;;19.77;8.30;;;;;;;8.63;100.00;99720.00;7389334;19;20462;-49
2023/11/20 01:30:57;;;;;;;17.57;6.70;;;;;;;8.62;100.00;99720.81;7368541;19;20423;-46
2023/11/20 01:33:27;;;;;;;17.97;7.10;;;;;;;8.66;100.00;99720.09;7387369;19;20444;-50
2023/11/20 01:35:57;;;;;;;24.93;9.03;;;;;;;8.67;100.00;99724.41;7371617;19;20423;-47
2023/11/20 01:38:29;;;;;;;22.77;8.57;;;;;;;8.67;100.00;99726.97;7387894;19;20469;-49
2023/11/20 01:40:58;;;;;;;14.73;6.80;;;;;;;8.65;100.00;99731.19;7369102;19;21027;-48
2023/11/20 01:43:28;;;;;;;14.20;6.43;;;;;;;8.68;100.00;99725.28;7387896;19;20412;-49
2023/11/20 01:46:02;;;;;;;20.07;6.50;;;;;;;8.69;100.00;99734.75;7367130;19;20785;-47
2023/11/20 01:48:32;;;;;;;22.33;6.57;;;;;;;8.66;100.00;99727.78;7380830;19;20447;-48
2023/11/20 01:51:01;;;;;;;21.73;7.93;;;;;;;8.70;100.00;99728.78;7375853;19;20433;-48
2023/11/20 01:53:34;;;;;;;13.10;6.30;;;;;;;8.68;100.00;99730.44;7381722;19;20408;-50
2023/11/20 01:56:04;;;;;;;16.30;6.77;;;;;;;8.69;100.00;99730.47;7368364;19;20423;-48
2023/11/20 01:58:34;;;;;;;16.63;6.97;;;;;;;8.69;100.00;99732.16;7384714;19;21032;-48
2023/11/20 02:01:04;;;;;;;18.63;7.83;;;;;;;8.66;100.00;99732.94;7364290;19;20423;-46
2023/11/20 02:03:34;;;;;;;16.53;6.73;;;;;;;8.66;100.00;99732.09;7385039;19;20408;-46
2023/11/20 02:06:04;;;;;;;12.27;6.20;;;;;;;8.65;100.00;99733.75;7359816;19;20423;-45
2023/11/20 02:08:36;;;;;;;16.77;6.10;;;;;;;8.69;100.00;99730.47;7383283;19;20850;-52
2023/11/20 02:11:07;;;;;;;15.43;5.80;;;;;;;8.69;100.00;99738.19;7362648;19;20983;-47
2023/11/20 02:13:37;;;;;;;17.70;6.13;;;;;;;8.67;100.00;99734.69;7387214;19;20420;-51
2023/11/20 02:16:08;;;;;;;16.43;6.83;;;;;;;8.68;100.00;99736.47;7364820;19;20987;-47
2023/11/20 02:18:38;;;;;;;12.73;5.73;;;;;;;8.66;100.00;99737.22;7384750;19;20439;-51
2023/11/20 02:21:08;;;;;;;12.73;5.60;;;;;;;8.68;100.00;99736.47;7367550;19;20526;-51
2023/11/20 02:23:40;;;;;;;16.13;5.87;;;;;;;8.66;100.00;99740.66;7389110;19;20400;-47
2023/11/20 02:26:32;;;;;;;19.70;7.43;;;;;;;8.68;100.00;99746.75;7365742;19;20518;-46
2023/11/20 02:29:08;;;;;;;22.83;7.70;;;;;;;8.68;100.00;99744.16;7394300;19;20879;-47
2023/11/20 02:31:41;;;;;;;17.47;9.00;;;;;;;8.71;100.00;99751.13;7373994;19;20483;-45
2023/11/20 02:34:10;;;;;;;13.90;6.10;;;;;;;8.70;100.00;99744.19;7397670;19;20399;-45
2023/11/20 02:36:40;;;;;;;21.10;8.53;;;;;;;8.67;100.00;99755.25;7371228;19;20427;-45
2023/11/20 02:39:10;;;;;;;15.83;7.73;;;;;;;8.68;100.00;99753.56;7394532;19;21118;-48
2023/11/20 02:41:39;;;;;;;17.23;7.03;;;;;;;8.67;100.00;99768.13;7373932;19;20427;-45
2023/11/20 02:44:09;;;;;;;15.10;7.07;;;;;;;8.62;100.00;99765.41;7396234;19;20410;-47
2023/11/20 02:46:43;;;;;;;14.53;6.00;;;;;;;8.65;100.00;99764.63;7374327;19;20415;-47
2023/11/20 02:49:13;;;;;;;18.77;8.17;;;;;;;8.62;100.00;99765.41;7395531;19;20435;-47
2023/11/20 02:51:42;;;;;;;16.73;7.53;;;;;;;8.63;100.00;99777.41;7371720;19;20528;-46
2023/11/20 02:54:13;;;;;;;13.63;6.70;;;;;;;8.63;100.00;99777.41;7395773;19;20404;-50
2023/11/20 02:56:42;;;;;;;13.80;7.00;;;;;;;8.67;100.00;99894.13;7366725;19;20482;-48
2023/11/20 02:59:12;;;;;;;15.03;5.90;;;;;;;8.65;100.00;99954.91;7393932;19;20400;-53
2023/11/20 03:01:48;;;;;;;20.87;6.40;;;;;;;8.62;100.00;99967.69;7372024;19;20427;-47
2023/11/20 03:04:18;;;;;;;17.73;7.27;;;;;;;8.60;100.00;99966.72;7394364;19;20776;-46
2023/11/20 03:06:48;;;;;;;18.40;6.70;;;;;;;8.58;100.00;99966.69;7368422;19;20831;-47
2023/11/20 03:09:18;;;;;;;14.20;7.03;;;;;;;8.63;100.00;99965.16;7395026;19;20403;-49
2023/11/20 03:11:48;;;;;;;21.10;8.67;;;;;;;8.63;100.00;99969.44;7370806;19;20560;-47
2023/11/20 03:14:20;;;;;;;15.57;7.23;;;;;;;8.62;100.00;99972.81;7395424;19;20411;-46
2023/11/20 03:16:52;;;;;;;16.80;7.50;;;;;;;8.62;100.00;99983.09;7370722;19;20423;-45
2023/11/20 03:19:22;;;;;;;19.33;8.33;;;;;;;8.59;100.00;99986.44;7392320;19;20404;-47
2023/11/20 03:21:52;;;;;;;18.10;7.73;;;;;;;8.60;100.00;100005.28;7371708;19;20439;-45
2023/11/20 03:24:21;;;;;;;22.30;8.80;;;;;;;8.60;100.00;100098.75;7395546;19;20404;-47
2023/11/20 03:26:51;;;;;;;24.63;8.30;;;;;;;8.66;100.00;100260.13;7370703;19;20490;-45
2023/11/20 03:29:21;;;;;;;22.77;8.57;;;;;;;8.67;100.00;100253.31;7394042;19;20418;-49
2023/11/20 03:31:53;;;;;;;18.30;8.00;;;;;;;8.65;100.00;100260.94;7370820;19;21056;-46
2023/11/20 03:34:22;;;;;;;21.40;8.70;;;;;;;8.64;100.00;100254.94;7393580;19;20439;-51
2023/11/20 03:36:52;;;;;;;16.97;8.27;;;;;;;8.68;100.00;100255.94;7369844;19;21015;-46
2023/11/20 03:39:22;;;;;;;20.60;8.53;;;;;;;8.66;100.00;100244.69;7392336;19;20403;-46
2023/11/20 03:41:51;;;;;;;18.83;7.53;;;;;;;8.66;100.00;100252.41;7369665;19;20498;-47
2023/11/20 03:44:21;;;;;;;33.70;13.20;;;;;;;8.59;100.00;100246.16;7393177;19;20810;-47
2023/11/20 03:46:53;;;;;;;16.93;8.07;;;;;;;8.52;100.00;100244.16;7369948;19;20498;-48
2023/11/20 03:49:23;;;;;;;20.23;9.07;;;;;;;8.51;100.00;100244.91;7393487;19;20391;-48
2023/11/20 03:51:52;;;;;;;17.63;7.40;;;;;;;8.43;100.00;100242.03;7369932;19;20451;-46
2023/11/20 03:54:22;;;;;;;15.87;8.23;;;;;;;8.37;100.00;100250.34;7392769;19;20833;-47
2023/11/20 03:56:52;;;;;;;23.17;10.03;;;;;;;8.36;100.00;100247.72;7370619;19;20495;-48
2023/11/20 03:59:21;;;;;;;23.70;8.63;;;;;;;8.43;100.00;100246.28;7393717;19;20443;-46
2023/11/20 04:01:53;;;;;;;19.50;9.07;;;;;;;8.40;100.00;100246.16;7368954;19;20423;-47
2023/11/20 04:04:23;;;;;;;20.83;9.47;;;;;;;8.38;100.00;100254.66;7393771;19;20403;-46
2023/11/20 04:06:53;;;;;;;20.70;8.93;;;;;;;8.36;100.00;100248.59;7367736;19;20947;-46
2023/11/20 04:09:22;;;;;;;21.17;9.73;;;;;;;8.40;100.00;100253.88;7391380;19;20395;-46
2023/11/20 04:11:52;;;;;;;22.77;10.10;;;;;;;8.40;100.00;100249.59;7369606;19;20423;-46
2023/11/20 04:14:22;;;;;;;21.63;10.43;;;;;;;8.34;100.00;100257.06;7392134;19;20408;-47
2023/11/20 04:16:55;;;;;;;22.10;8.90;;;;;;;8.42;100.00;100263.41;7368892;19;20455;-47
2023/11/20 04:19:25;;;;;;;28.27;9.73;;;;;;;8.49;100.00;100255.16;7397651;19;20407;-46
2023/11/20 04:21:55;;;;;;;30.27;10.67;;;;;;;8.46;100.00;100261.84;7376216;19;20423;-46
2023/11/20 04:24:25;;;;;;;38.27;10.70;;;;;;;8.51;100.00;100260.34;7398905;19;20407;-47
2023/11/20 04:26:55;;;;;;;22.40;10.13;;;;;;;8.50;100.00;100262.03;7376623;19;20487;-46
2023/11/20 04:29:25;;;;;;;24.90;10.80;;;;;;;8.43;100.00;100262.59;7400655;19;20816;-46
2023/11/20 04:31:58;;;;;;;28.97;12.40;;;;;;;8.49;100.00;100264.53;7376999;19;20819;-46
2023/11/20 04:34:27;;;;;;;24.33;11.00;;;;;;;8.54;100.00;100267.34;7401240;19;20535;-48
2023/11/20 04:36:57;;;;;;;22.90;10.23;;;;;;;8.48;100.00;100266.25;7375524;19;20502;-47
2023/11/20 04:39:27;;;;;;;30.13;11.83;;;;;;;8.53;100.00;100252.72;7400027;19;20927;-46
2023/11/20 04:41:58;;;;;;;25.80;10.70;;;;;;;8.55;100.00;100257.13;7374914;19;20427;-47
2023/11/20 04:44:27;;;;;;;37.73;14.10;;;;;;;8.53;100.00;100261.34;7398519;19;20407;-49
2023/11/20 04:46:59;;;;;;;32.67;12.67;;;;;;;8.46;100.00;100255.00;7375398;19;20511;-47
2023/11/20 04:49:29;;;;;;;30.33;12.77;;;;;;;8.46;100.00;100260.16;7397798;19;20410;-46
2023/11/20 04:51:59;;;;;;;30.40;11.93;;;;;;;8.48;100.00;100271.41;7375528;19;20478;-48
2023/11/20 04:54:28;;;;;;;29.63;11.07;;;;;;;8.49;100.00;100265.44;7401040;19;20419;-47
2023/11/20 04:56:59;;;;;;;32.07;10.90;;;;;;;8.48;100.00;100268.81;7375528;19;20443;-49
2023/11/20 04:59:29;;;;;;;28.97;10.80;;;;;;;8.43;100.00;100269.44;7399860;19;20410;-49
2023/11/20 05:02:01;;;;;;;25.93;11.60;;;;;;;8.39;100.00;100268.41;7375130;19;20429;-51
2023/11/20 05:04:30;;;;;;;24.17;11.30;;;;;;;8.37;100.00;100270.91;7398391;19;20435;-48
2023/11/20 05:07:00;;;;;;;23.47;11.27;;;;;;;8.41;100.00;100274.50;7373854;19;20435;-52
2023/11/20 05:09:30;;;;;;;27.30;9.90;;;;;;;8.42;100.00;100276.28;7396519;19;20411;-47
2023/11/20 05:12:00;;;;;;;31.00;10.93;;;;;;;8.43;100.00;100279.72;7375377;19;20435;-47
2023/11/20 05:14:30;;;;;;;28.23;12.20;;;;;;;8.43;100.00;100284.84;7397694;19;20415;-51
2023/11/20 05:17:02;;;;;;;28.60;10.83;;;;;;;8.42;100.00;100284.00;7371485;19;20426;-48
2023/11/20 05:19:33;;;;;;;24.70;10.77;;;;;;;8.46;100.00;100280.72;7399104;19;20408;-47
2023/11/20 05:22:03;;;;;;;29.83;11.40;;;;;;;8.50;100.00;100287.75;7374309;19;20426;-47
2023/11/20 05:24:32;;;;;;;31.80;13.17;;;;;;;8.48;100.00;100289.41;7397438;19;20411;-48
2023/11/20 05:27:02;;;;;;;29.50;11.93;;;;;;;8.46;100.00;100291.00;7374309;19;20727;-46
2023/11/20 05:29:32;;;;;;;34.20;11.90;;;;;;;8.47;100.00;100291.88;7396074;19;20491;-47
2023/11/20 05:32:05;;;;;;;28.17;11.60;;;;;;;8.46;100.00;100296.13;7375037;19;20423;-46
2023/11/20 05:34:35;;;;;;;32.70;12.20;;;;;;;8.46;100.00;100301.28;7397177;19;21009;-49
2023/11/20 05:37:05;;;;;;;27.13;10.87;;;;;;;8.45;100.00;100299.53;7373836;19;20479;-47
2023/11/20 05:39:35;;;;;;;31.10;12.47;;;;;;;8.47;100.00;100303.03;7399043;19;20399;-47
2023/11/20 05:42:06;;;;;;;30.57;12.10;;;;;;;8.47;100.00;100294.47;7373622;19;21423;-47
2023/11/20 05:44:36;;;;;;;31.23;12.80;;;;;;;8.48;100.00;100297.09;7399109;19;20415;-46
2023/11/20 05:47:08;;;;;;;28.50;12.10;;;;;;;8.45;100.00;100301.22;7373767;19;20562;-48
2023/11/20 05:49:39;;;;;;;29.90;12.90;;;;;;;8.47;100.00;100297.91;7398772;19;20413;-47
2023/11/20 05:52:09;;;;;;;35.77;12.10;;;;;;;8.53;100.00;100299.91;7373568;19;20484;-46
2023/11/20 05:54:38;;;;;;;28.33;11.93;;;;;;;8.50;100.00;100298.03;7396045;19;20944;-47
2023/11/20 05:57:08;;;;;;;30.70;12.40;;;;;;;8.47;100.00;100300.47;7373531;19;20467;-49
2023/11/20 05:59:38;;;;;;;35.10;11.87;;;;;;;8.44;100.00;100304.59;7396491;19;20479;-46
2023/11/20 06:02:10;;;;;;;37.20;14.63;;;;;;;8.48;100.00;100304.81;7371638;19;21026;-46
2023/11/20 06:04:40;;;;;;;34.20;13.37;;;;;;;8.46;100.00;100300.41;7398852;19;20411;-47
2023/11/20 06:07:10;;;;;;;36.10;13.40;;;;;;;8.48;100.00;100309.06;7370967;19;20467;-47
2023/11/20 06:09:40;;;;;;;28.03;11.93;;;;;;;8.45;100.00;100314.97;7398335;19;20400;-49
2023/11/20 06:12:10;;;;;;;28.17;12.20;;;;;;;8.47;100.00;100315.88;7373898;19;20989;-47
2023/11/20 06:14:39;;;;;;;36.47;15.50;;;;;;;8.46;100.00;100309.00;7396417;19;20487;-47
2023/11/20 06:17:11;;;;;;;32.67;12.37;;;;;;;8.47;100.00;100313.31;7372701;19;20488;-48
2023/11/20 06:19:42;;;;;;;40.20;15.00;;;;;;;8.46;100.00;100315.84;7398360;19;20422;-46
2023/11/20 06:22:11;;;;;;;33.83;13.70;;;;;;;8.42;100.00;100314.84;7371945;19;21029;-46
2023/11/20 06:24:41;;;;;;;36.83;13.50;;;;;;;8.42;100.00;100313.94;7396446;19;20404;-46
2023/11/20 06:27:11;;;;;;;36.97;14.83;;;;;;;8.43;100.00;100318.28;7373032;19;20478;-48
2023/11/20 06:29:42;;;;;;;31.90;13.37;;;;;;;8.44;100.00;100323.50;7395556;19;20400;-47
2023/11/20 06:32:15;;;;;;;37.43;14.77;;;;;;;8.42;100.00;100317.41;7372687;19;20427;-46
2023/11/20 06:34:45;;;;;;;42.37;14.67;;;;;;;8.49;100.00;100321.09;7395950;19;20475;-46
2023/11/20 06:37:16;;;;;;;40.53;14.33;;;;;;;8.42;100.00;100330.25;7372128;19;20879;-48
2023/11/20 06:39:45;;;;;;;39.70;14.87;;;;;;;8.42;100.00;100330.25;7392923;19;20403;-48
2023/11/20 06:42:15;;;;;;;41.40;15.20;;;;;;;8.45;100.00;100337.19;7370589;19;20468;-49
2023/11/20 06:44:45;;;;;;;40.43;14.80;;;;;;;8.44;100.00;100332.88;7395747;19;20408;-48
2023/11/20 06:47:17;;;;;;;36.63;14.40;;;;;;;8.45;100.00;100334.63;7372280;19;20905;-46
2023/11/20 06:49:46;;;;;;;40.77;15.47;;;;;;;8.42;100.00;100335.41;7393668;19;20466;-50
2023/11/20 06:52:16;;;;;;;38.30;14.60;;;;;;;8.43;100.00;100346.56;7372353;19;20427;-47
2023/11/20 06:54:46;;;;;;;45.27;15.23;;;;;;;8.45;100.00;100348.38;7394657;19;20951;-49
2023/11/20 06:57:15;;;;;;;45.50;16.40;;;;;;;8.49;100.00;100355.44;7372935;19;20479;-50
2023/11/20 06:59:45;;;;;;;39.43;14.00;;;;;;;8.47;100.00;100359.59;7392701;19;20404;-48
2023/11/20 07:02:17;;;;;;;39.10;14.70;;;;;;;8.42;100.00;100365.38;7370190;19;20431;-47
2023/11/20 07:04:47;;;;;;;41.80;15.33;;;;;;;8.38;100.00;100374.63;7395382;19;20396;-46
2023/11/20 07:07:17;;;;;;;50.33;17.23;;;;;;;8.40;100.00;100361.84;7369951;19;20838;-51
2023/11/20 07:09:46;;;;;;;33.20;13.20;;;;;;;8.39;100.00;100363.53;7392194;19;20408;-50
2023/11/20 07:12:17;;;;;;;39.93;16.43;;;;;;;8.40;100.00;100367.00;7359340;19;20450;-48
2023/11/20 07:14:46;;;;;;;47.90;16.07;;;;;;;8.44;100.00;100372.34;7388108;19;20404;-46
2023/11/20 07:17:19;;;;;;;43.67;16.80;;;;;;;8.45;100.00;100371.53;7364453;19;20906;-47
2023/11/20 07:19:48;;;;;;;39.80;14.93;;;;;;;8.45;100.00;100376.66;7386048;19;21360;-50
2023/11/20 07:22:18;;;;;;;41.60;14.77;;;;;;;8.53;100.00;100371.91;7362189;19;20934;-45
2023/11/20 07:24:48;;;;;;;40.20;16.00;;;;;;;8.55;100.00;100370.25;7387391;19;20411;-46
2023/11/20 07:27:17;;;;;;;36.77;14.80;;;;;;;8.50;100.00;100380.31;7363537;19;20476;-48
2023/11/20 07:29:47;;;;;;;40.90;15.73;;;;;;;8.49;100.00;100376.00;7384648;19;20403;-47
2023/11/20 07:32:19;;;;;;;36.37;13.40;;;;;;;8.53;100.00;100378.72;7363849;19;20906;-48
2023/11/20 07:34:48;;;;;;;50.90;17.90;;;;;;;8.57;100.00;100381.47;7386212;19;20399;-50
2023/11/20 07:37:19;;;;;;;43.27;15.73;;;;;;;8.57;100.00;100388.34;7362561;19;20458;-52
2023/11/20 07:39:49;;;;;;;44.83;16.10;;;;;;;8.57;100.00;100385.78;7384859;19;20419;-45
2023/11/20 07:42:19;;;;;;;38.90;14.97;;;;;;;8.55;100.00;100389.97;7362883;19;20450;-48
2023/11/20 07:44:48;;;;;;;38.90;15.13;;;;;;;8.57;100.00;100393.47;7385149;19;20411;-49
2023/11/20 07:47:21;;;;;;;45.70;16.00;;;;;;;8.58;100.00;100397.81;7362812;19;20873;-47
2023/11/20 07:49:51;;;;;;;48.63;16.40;;;;;;;8.56;100.00;100394.31;7384107;19;20418;-51
2023/11/20 07:52:21;;;;;;;62.83;16.67;;;;;;;8.59;100.00;100400.47;7361895;19;20498;-51
2023/11/20 07:54:51;;;;;;;44.63;16.47;;;;;;;8.62;100.00;100398.00;7385851;19;20420;-46
2023/11/20 07:57:21;;;;;;;43.20;14.83;;;;;;;8.71;100.00;100400.09;7361928;19;20447;-47
2023/11/20 07:59:51;;;;;;;57.10;20.77;;;;;;;8.76;100.00;100401.19;7384700;19;20482;-50
2023/11/20 08:02:24;;;;;;;44.50;17.10;;;;;;;8.73;100.00;100402.75;7361886;19;20426;-46
2023/11/20 08:04:56;;;;;;;42.10;15.00;;;;;;;8.71;100.00;100401.81;7386858;19;20403;-45
2023/11/20 08:07:26;;;;;;;46.37;17.20;;;;;;;8.77;100.00;100404.66;7360092;19;20447;-49
2023/11/20 08:09:55;;;;;;;74.93;25.77;;;;;;;8.96;100.00;100400.31;7383999;19;20395;-46
2023/11/20 08:12:26;;;;;;;63.63;23.97;;;;;;;9.02;100.00;100406.56;7361727;19;20498;-46
2023/11/20 08:14:56;;;;;;;52.57;16.90;;;;;;;8.90;100.00;100400.91;7386558;19;20404;-49
2023/11/20 08:17:28;;;;;;;61.90;21.60;;;;;;;8.89;100.00;100409.44;7360542;19;20577;-48
2023/11/20 08:19:59;;;;;;;52.30;18.90;;;;;;;8.88;100.00;100417.97;7382883;19;20777;-46
2023/11/20 08:22:30;;;;;;;53.47;19.07;;;;;;;8.90;100.00;100421.47;7361128;19;20991;-49
2023/11/20 08:25:03;;;;;;;52.67;18.93;;;;;;;8.86;100.00;100425.63;7387012;19;20417;-47
2023/11/20 08:27:33;;;;;;;52.87;18.83;;;;;;;8.90;100.00;100424.94;7360767;19;20451;-48
2023/11/20 08:30:03;;;;;;;46.13;17.77;;;;;;;8.94;100.00;100433.69;7386329;19;20443;-47
2023/11/20 08:32:35;;;;;;;52.60;18.43;;;;;;;8.93;100.00;100431.91;7361880;19;20443;-47
2023/11/20 08:35:05;;;;;;;48.50;17.60;;;;;;;8.87;100.00;100436.81;7384727;19;20432;-49
2023/11/20 08:37:35;;;;;;;53.43;18.57;;;;;;;8.83;100.00;100447.75;7361048;19;20459;-47
2023/11/20 08:40:07;;;;;;;50.07;16.37;;;;;;;8.83;100.00;100451.22;7385561;19;20420;-49
2023/11/20 08:42:36;;;;;;;48.80;16.80;;;;;;;8.86;100.00;100456.50;7362092;19;20450;-46
2023/11/20 08:45:07;;;;;;;53.83;20.00;;;;;;;8.84;100.00;100464.94;7383820;19;20391;-52
2023/11/20 08:47:40;;;;;;;51.27;17.57;;;;;;;8.84;100.00;100465.84;7362226;19;20451;-47
2023/11/20 08:50:11;;;;;;;47.33;17.60;;;;;;;8.80;100.00;100466.50;7385923;19;20415;-47
2023/11/20 08:52:41;;;;;;;49.40;15.70;;;;;;;8.82;100.00;100472.59;7362336;19;20508;-48
2023/11/20 08:55:11;;;;;;;44.50;16.47;;;;;;;8.85;100.00;100474.41;7384296;19;20411;-49
2023/11/20 08:57:41;;;;;;;48.57;18.00;;;;;;;8.82;100.00;100476.88;7361749;19;20478;-48
2023/11/20 09:00:14;;;;;;;53.30;16.73;;;;;;;8.87;100.00;100475.41;7382583;19;20971;-53
2023/11/20 09:02:48;;;;;;;53.77;17.60;;;;;;;8.93;100.00;100478.25;7361261;19;20462;-46
2023/11/20 09:05:17;;;;;;;40.07;15.50;;;;;;;8.98;100.00;100476.72;7365631;19;20399;-47
2023/11/20 09:07:47;;;;;;;37.60;14.10;;;;;;;9.05;100.00;100478.78;7389849;19;20977;-47
2023/11/20 09:10:17;;;;;;;47.03;16.17;;;;;;;9.05;100.00;100467.59;7368856;19;20399;-51
2023/11/20 09:12:47;;;;;;;36.70;13.40;;;;;;;9.09;100.00;100474.63;7390346;19;20403;-51
2023/11/20 09:15:17;;;;;;;34.90;14.40;;;;;;;9.13;100.00;100476.50;7367095;19;20403;-48
2023/11/20 09:17:49;;;;;;;42.77;14.83;;;;;;;9.14;100.00;100472.25;7388007;19;20435;-48
2023/11/20 09:20:21;;;;;;;40.53;14.57;;;;;;;9.10;100.00;100470.34;7369708;19;20414;-47
2023/11/20 09:22:51;;;;;;;35.53;14.13;;;;;;;9.05;100.00;100472.72;7390789;19;20407;-46
2023/11/20 09:25:21;;;;;;;36.70;13.97;;;;;;;9.07;100.00;100471.09;7369808;19;20418;-51
2023/11/20 09:27:50;;;;;;;92.60;31.90;;;;;;;9.15;100.00;100484.31;7388444;19;20443;-47
2023/11/20 09:30:20;;;;;;;32.57;13.53;;;;;;;9.11;100.00;100472.09;7366118;19;20411;-50
2023/11/20 09:32:53;;;;;;;40.30;14.30;;;;;;;9.11;100.00;100477.25;7390855;19;20387;-46
2023/11/20 09:35:24;;;;;;;33.53;13.47;;;;;;;9.12;100.00;100479.03;7369959;19;20403;-47
2023/11/20 09:37:54;;;;;;;42.50;13.37;;;;;;;9.07;100.00;100485.69;7388439;19;20471;-46
2023/11/20 09:40:24;;;;;;;34.30;14.33;;;;;;;9.11;100.00;100478.16;7369111;19;20408;-49
2023/11/20 09:42:53;;;;;;;35.33;14.10;;;;;;;9.13;100.00;100481.66;7388180;19;20424;-47
2023/11/20 09:45:29;;;;;;;37.40;13.70;;;;;;;9.20;100.00;100482.81;7369546;19;20418;-48
2023/11/20 09:48:07;;;;;;;34.33;13.30;;;;;;;9.21;100.00;100479.41;7388322;19;20971;-47
2023/11/20 09:50:39;;;;;;;35.93;13.70;;;;;;;9.24;100.00;100471.84;7369221;19;20473;-49
2023/11/20 09:53:11;;;;;;;41.63;13.67;;;;;;;9.25;100.00;100468.44;7389486;19;20445;-50
2023/11/20 09:55:42;;;;;;;34.63;13.00;;;;;;;9.24;100.00;100461.53;7365301;19;20543;-49
2023/11/20 09:58:11;;;;;;;34.17;13.97;;;;;;;9.26;100.00;100467.63;7386066;19;20535;-52
2023/11/20 10:00:41;;;;;;;33.80;13.77;;;;;;;9.23;100.00;100454.63;7366459;19;20999;-47
2023/11/20 10:03:13;;;;;;;33.33;12.83;;;;;;;9.22;100.00;100450.28;7386497;19;20402;-49
2023/11/20 10:05:48;;;;;;;33.57;13.20;;;;;;;9.31;100.00;100450.69;7363314;19;20438;-47
2023/11/20 10:08:20;;;;;;;30.13;11.60;;;;;;;9.35;100.00;100453.38;7388220;19;20431;-47
2023/11/20 10:10:51;;;;;;;33.70;13.70;;;;;;;9.38;100.00;100450.94;7363334;19;20431;-49
2023/11/20 10:13:21;;;;;;;38.00;13.43;;;;;;;9.38;100.00;100450.94;7385486;19;20413;-49
2023/11/20 10:15:52;;;;;;;32.83;12.87;;;;;;;9.31;100.00;100440.38;7361446;19;20415;-51
2023/11/20 10:18:24;;;;;;;32.23;13.33;;;;;;;9.29;100.00;100436.00;7385884;19;20846;-49
2023/11/20 10:20:54;;;;;;;26.80;11.93;;;;;;;9.24;100.00;100432.34;7365078;19;20832;-48
2023/11/20 10:23:24;;;;;;;38.70;12.77;;;;;;;9.25;100.00;100422.13;7387381;19;20411;-48
2023/11/20 10:25:55;;;;;;;32.67;12.40;;;;;;;9.32;100.00;100420.66;7364448;19;20499;-49
2023/11/20 10:28:25;;;;;;;33.00;12.70;;;;;;;9.32;100.00;100418.97;7385587;19;20439;-47
2023/11/20 10:30:55;;;;;;;28.83;11.60;;;;;;;9.34;100.00;100406.16;7363173;19;21301;-49
2023/11/20 10:33:27;;;;;;;29.00;12.87;;;;;;;9.38;100.00;100405.47;7385228;19;20415;-48
2023/11/20 10:35:57;;;;;;;29.40;12.07;;;;;;;9.44;100.00;100397.13;7366254;19;20427;-48
2023/11/20 10:38:30;;;;;;;28.00;11.80;;;;;;;9.43;100.00;100392.75;7386074;19;20440;-50
2023/11/20 10:41:00;;;;;;;31.60;12.37;;;;;;;9.44;100.00;100397.13;7364380;19;20436;-50
2023/11/20 10:43:30;;;;;;;28.90;12.57;;;;;;;9.48;100.00;100385.25;7388137;19;20403;-52
2023/11/20 10:45:59;;;;;;;34.13;11.80;;;;;;;9.49;100.00;100387.00;7366465;19;21068;-49
2023/11/20 10:48:36;;;;;;;33.03;12.87;;;;;;;9.52;100.00;100372.56;7386491;19;21121;-50
2023/11/20 10:51:09;;;;;;;30.07;12.57;;;;;;;9.51;100.00;100365.66;7366300;19;20415;-48
2023/11/20 10:53:41;;;;;;;29.10;11.83;;;;;;;9.43;100.00;100357.59;7388824;19;20414;-46
2023/11/20 10:56:13;;;;;;;36.87;12.20;;;;;;;9.41;100.00;100358.34;7365098;19;20415;-47
2023/11/20 10:58:46;;;;;;;40.83;15.43;;;;;;;9.37;100.00;100341.03;7386680;19;20435;-49
2023/11/20 11:01:16;;;;;;;36.07;12.93;;;;;;;9.42;100.00;100334.38;7363580;19;20427;-47
2023/11/20 11:03:49;;;;;;;39.90;14.93;;;;;;;9.45;100.00;100334.50;7386398;19;20777;-49
2023/11/20 11:06:19;;;;;;;32.40;14.50;;;;;;;9.47;100.00;100340.56;7364865;19;20437;-51
2023/11/20 11:08:50;;;;;;;35.50;12.97;;;;;;;9.48;100.00;100319.16;7385618;19;20439;-49
2023/11/20 11:11:20;;;;;;;31.87;12.50;;;;;;;9.38;100.00;100314.47;7364479;19;20460;-49
2023/11/20 11:13:51;;;;;;;33.40;12.70;;;;;;;9.34;100.00;100305.75;7386706;19;20406;-49
2023/11/20 11:16:25;;;;;;;29.07;11.30;;;;;;;9.29;100.00;100302.13;7365456;19;20425;-52
2023/11/20 11:19:03;;;;;;;31.53;12.23;;;;;;;9.31;100.00;100288.50;7384818;19;20475;-49
2023/11/20 11:21:41;;;;;;;36.17;12.77;;;;;;;9.30;100.00;100286.75;7365001;19;20470;-47
2023/11/20 11:24:15;;;;;;;31.33;11.50;;;;;;;9.28;100.00;100270.34;7387844;19;21032;-51
2023/11/20 11:26:52;;;;;;;30.47;12.90;;;;;;;9.30;100.00;100245.56;7362971;19;21112;-48
2023/11/20 11:29:27;;;;;;;28.30;13.03;;;;;;;9.39;100.00;100211.53;7386391;19;20415;-48